Time;durP1;ratioP1;P1;durP2;ratioP2;P2;SDS_P1;SDS_P2;PMS_P1;PMS_P2;Temp;Humidity;BMP_temperature;BMP_pressure;BME280_temperature;BME280_humidity;BME280_pressure;Samples;Min_cycle;Max_cycle;Signal;HPM_P1;HPM_P2
2024/03/15 00:00:43;;;;;;;5.05;2.15;;;15.90;56.30;;;;;;6291471;28;20112;-77
2024/03/15 00:03:44;;;;;;;6.25;2.58;;;15.90;56.30;;;;;;6310195;28;20020;-77
2024/03/15 00:06:46;;;;;;;10.57;1.88;;;15.90;56.40;;;;;;6307613;28;20016;-77
2024/03/15 00:09:48;;;;;;;4.10;1.65;;;15.90;56.50;;;;;;6287549;28;20039;-78
2024/03/15 00:12:50;;;;;;;6.57;2.28;;;15.90;56.70;;;;;;6309483;28;20043;-76
2024/03/15 00:15:52;;;;;;;8.43;2.42;;;15.60;56.60;;;;;;6308138;28;20030;-77
2024/03/15 00:18:55;;;;;;;4.68;1.85;;;15.70;56.80;;;;;;6290540;28;20096;-76
2024/03/15 00:21:58;;;;;;;5.95;2.03;;;15.70;56.90;;;;;;6306308;28;20059;-77
2024/03/15 00:24:58;;;;;;;9.73;1.90;;;15.70;57.00;;;;;;6308476;28;20119;-76
2024/03/15 00:28:01;;;;;;;9.40;2.47;;;15.70;57.20;;;;;;6307125;28;20068;-77
2024/03/15 00:31:04;;;;;;;5.45;2.30;;;15.60;57.30;;;;;;6291100;28;20069;-77
2024/03/15 00:38:28;;;;;;;;;;;15.50;57.60;;;;;;6309696;28;20194;-77
2024/03/15 00:41:29;;;;;;;7.85;2.38;;;15.50;57.70;;;;;;6307300;28;20305;-77
2024/03/15 00:44:30;;;;;;;10.65;1.95;;;15.40;57.90;;;;;;6299902;28;20016;-76
2024/03/15 00:47:31;;;;;;;4.88;2.65;;;15.40;58.00;;;;;;6307183;28;20151;-77
2024/03/15 00:50:33;;;;;;;7.55;2.45;;;15.30;58.20;;;;;;6308623;28;20023;-77
2024/03/15 00:53:34;;;;;;;4.28;1.75;;;15.30;58.20;;;;;;6308514;28;20032;-76
2024/03/15 00:56:36;;;;;;;5.70;1.77;;;15.30;58.40;;;;;;6306747;28;20562;-75
2024/03/15 00:59:37;;;;;;;5.05;2.10;;;15.30;58.60;;;;;;6306286;28;20047;-77
2024/03/15 01:02:38;;;;;;;5.78;2.38;;;15.30;58.20;;;;;;6281923;28;20437;-76
2024/03/15 01:05:38;;;;;;;4.88;1.80;;;15.40;58.20;;;;;;6293409;28;20020;-76
2024/03/15 01:08:40;;;;;;;12.50;2.08;;;15.40;58.10;;;;;;6306236;28;20380;-76
2024/03/15 01:11:41;;;;;;;7.45;2.30;;;15.40;58.00;;;;;;6281029;28;20365;-76
2024/03/15 01:14:42;;;;;;;9.10;2.28;;;15.50;57.90;;;;;;6286934;28;20042;-76
2024/03/15 01:17:44;;;;;;;5.43;1.90;;;15.50;57.80;;;;;;6306951;28;20034;-76
2024/03/15 01:20:45;;;;;;;13.40;2.00;;;15.70;57.80;;;;;;6306659;28;20120;-74
2024/03/15 01:23:47;;;;;;;9.02;2.08;;;15.60;57.50;;;;;;6306613;28;20028;-75
2024/03/15 01:26:51;;;;;;;9.40;2.03;;;15.70;57.40;;;;;;6306903;28;20028;-76
2024/03/15 01:29:54;;;;;;;8.30;1.80;;;15.70;57.30;;;;;;6303689;28;20020;-76
2024/03/15 01:32:58;;;;;;;9.55;1.92;;;15.70;57.20;;;;;;6307846;28;20012;-77
2024/03/15 01:36:25;;;;;;;5.88;1.85;;;15.70;57.70;;;;;;6307253;28;20222;-77
2024/03/15 01:39:27;;;;;;;11.45;2.42;;;15.70;57.20;;;;;;6289751;28;20051;-76
2024/03/15 01:42:28;;;;;;;8.30;2.13;;;15.70;57.10;;;;;;6308033;28;20140;-76
2024/03/15 01:45:28;;;;;;;8.35;2.05;;;15.80;57.10;;;;;;6307241;28;20217;-75
2024/03/15 01:48:30;;;;;;;11.73;1.88;;;15.70;57.00;;;;;;6305620;28;20043;-77
2024/03/15 01:51:33;;;;;;;11.23;2.10;;;15.70;57.00;;;;;;6304757;28;20031;-77
2024/03/15 01:54:38;;;;;;;5.68;1.88;;;15.70;57.00;;;;;;6280687;28;20024;-76
2024/03/15 01:57:39;;;;;;;4.57;1.90;;;15.70;57.00;;;;;;6282673;28;20020;-76
2024/03/15 02:00:41;;;;;;;5.18;1.63;;;15.70;57.00;;;;;;6303144;28;20026;-76
2024/03/15 02:03:46;;;;;;;5.35;1.80;;;15.70;57.00;;;;;;6296388;28;20027;-77
2024/03/15 02:06:47;;;;;;;2.72;2.22;;;15.70;57.10;;;;;;6307316;28;20031;-77
2024/03/15 02:09:49;;;;;;;4.65;2.15;;;15.70;57.00;;;;;;6305112;28;20065;-76
2024/03/15 02:12:51;;;;;;;11.13;2.05;;;15.70;57.00;;;;;;6281317;28;20044;-76
2024/03/15 02:15:53;;;;;;;3.92;1.95;;;15.70;57.00;;;;;;6291114;28;20500;-77
2024/03/15 02:18:54;;;;;;;5.50;1.98;;;15.70;57.00;;;;;;6304217;28;20016;-77
2024/03/15 02:21:55;;;;;;;4.30;1.73;;;15.70;57.00;;;;;;6304598;28;20032;-77
2024/03/15 02:24:57;;;;;;;13.70;2.88;;;15.70;56.90;;;;;;6305160;28;20051;-77
2024/03/15 02:28:00;;;;;;;5.50;1.85;;;15.70;56.90;;;;;;6305154;28;20132;-75
2024/03/15 02:31:06;;;;;;;4.82;1.73;;;15.70;56.90;;;;;;6307364;28;20134;-77
2024/03/15 02:34:07;;;;;;;5.75;2.13;;;15.70;56.90;;;;;;6307016;28;20020;-75
2024/03/15 02:37:07;;;;;;;3.20;2.05;;;15.70;56.90;;;;;;6305058;28;20035;-76
2024/03/15 02:40:10;;;;;;;6.13;2.40;;;15.70;56.90;;;;;;6306178;28;20016;-75
2024/03/15 02:43:12;;;;;;;7.65;1.95;;;15.60;57.00;;;;;;6306023;28;20471;-77
2024/03/15 02:46:17;;;;;;;7.40;2.15;;;15.60;57.10;;;;;;6285422;28;20441;-76
2024/03/15 02:49:18;;;;;;;7.95;1.90;;;15.60;57.20;;;;;;6304613;28;20192;-77
2024/03/15 02:52:19;;;;;;;10.45;2.58;;;15.60;57.40;;;;;;6301392;28;20027;-76
2024/03/15 02:55:34;;;;;;;7.40;2.40;;;15.60;57.40;;;;;;6306587;28;20020;-76
2024/03/15 02:58:36;;;;;;;8.75;2.00;;;15.50;57.50;;;;;;6303701;28;20052;-76
2024/03/15 03:01:40;;;;;;;7.07;1.80;;;15.50;58.20;;;;;;6289818;28;20122;-76
2024/03/15 03:04:41;;;;;;;7.63;2.22;;;15.40;57.70;;;;;;6311201;28;20024;-75
2024/03/15 03:07:42;;;;;;;7.15;2.17;;;15.40;57.90;;;;;;6292453;28;20024;-74
2024/03/15 03:10:43;;;;;;;3.97;1.90;;;15.30;58.00;;;;;;6311493;28;20016;-77
2024/03/15 03:13:44;;;;;;;13.70;2.50;;;15.30;58.20;;;;;;6293425;28;20023;-76
2024/03/15 03:16:45;;;;;;;8.98;2.00;;;15.20;58.30;;;;;;6324184;28;20021;-76
2024/03/15 03:19:46;;;;;;;8.18;2.22;;;15.10;58.50;;;;;;6309277;28;20044;-78
2024/03/15 03:22:53;;;;;;;11.27;2.22;;;15.10;58.70;;;;;;6308853;28;20035;-77
2024/03/15 03:25:54;;;;;;;6.32;1.98;;;15.00;58.90;;;;;;6309170;28;20519;-76
2024/03/15 03:28:56;;;;;;;4.38;2.08;;;15.00;59.00;;;;;;6310442;28;20778;-76
2024/03/15 03:31:59;;;;;;;8.75;2.08;;;14.90;59.10;;;;;;6291910;28;20061;-76
2024/03/15 03:35:01;;;;;;;9.32;2.30;;;14.90;59.30;;;;;;6309832;28;20020;-76
2024/03/15 03:38:02;;;;;;;9.18;2.20;;;14.80;59.30;;;;;;6308934;28;20087;-77
2024/03/15 03:41:03;;;;;;;4.25;2.03;;;14.80;59.50;;;;;;6307968;28;20027;-77
2024/03/15 03:44:04;;;;;;;2.42;1.63;;;14.80;59.60;;;;;;6309921;28;20020;-76
2024/03/15 03:47:05;;;;;;;4.05;1.98;;;14.70;59.60;;;;;;6308159;28;20630;-77
2024/03/15 03:50:06;;;;;;;8.05;2.47;;;14.70;59.60;;;;;;6291461;28;20127;-77
2024/03/15 03:53:11;;;;;;;7.63;1.73;;;14.70;59.70;;;;;;6304437;28;20023;-73
2024/03/15 03:56:14;;;;;;;5.55;2.55;;;14.70;59.70;;;;;;6308499;28;20040;-75
2024/03/15 03:59:17;;;;;;;7.70;1.88;;;14.70;59.70;;;;;;6310239;28;20074;-77
2024/03/15 04:02:18;;;;;;;7.28;1.83;;;14.70;59.80;;;;;;6291100;28;20130;-77
2024/03/15 04:05:19;;;;;;;12.30;2.20;;;14.70;59.80;;;;;;6309741;28;20020;-76
2024/03/15 04:08:21;;;;;;;13.30;2.40;;;14.70;59.80;;;;;;6307399;28;20061;-76
2024/03/15 04:11:24;;;;;;;8.80;2.22;;;14.70;60.00;;;;;;6311804;28;20056;-76
2024/03/15 04:14:25;;;;;;;3.72;1.92;;;14.70;60.00;;;;;;6306614;28;20047;-76
2024/03/15 04:17:27;;;;;;;3.80;2.05;;;14.70;60.00;;;;;;6307335;28;20024;-75
2024/03/15 04:20:29;;;;;;;8.50;1.90;;;14.60;60.00;;;;;;6287260;28;20039;-77
2024/03/15 04:23:30;;;;;;;8.48;2.42;;;14.60;60.10;;;;;;6308502;28;20498;-77
2024/03/15 04:26:34;;;;;;;8.55;2.90;;;14.50;60.30;;;;;;6307653;28;20024;-77
2024/03/15 04:29:38;;;;;;;6.70;2.13;;;14.50;60.30;;;;;;6308260;28;20119;-75
2024/03/15 04:32:42;;;;;;;5.75;1.85;;;14.40;60.40;;;;;;6290808;28;20150;-74
2024/03/15 04:35:44;;;;;;;6.20;2.42;;;14.40;60.40;;;;;;6307848;28;20031;-76
2024/03/15 04:38:45;;;;;;;3.95;1.95;;;14.40;60.60;;;;;;6304723;28;20107;-75
2024/03/15 04:41:47;;;;;;;5.82;2.47;;;14.30;60.70;;;;;;6301597;28;20053;-75
2024/03/15 04:44:48;;;;;;;7.68;2.53;;;14.30;60.70;;;;;;6310071;28;20562;-76
2024/03/15 04:47:49;;;;;;;7.43;2.65;;;14.30;60.40;;;;;;6290540;28;20036;-76
2024/03/15 04:50:51;;;;;;;8.27;3.03;;;14.30;60.30;;;;;;6309050;28;20020;-76
2024/03/15 04:53:52;;;;;;;10.07;2.72;;;14.30;60.20;;;;;;6303303;28;20441;-75
2024/03/15 04:56:53;;;;;;;6.28;2.47;;;14.20;60.10;;;;;;6308229;28;20116;-75
2024/03/15 04:59:54;;;;;;;9.43;1.92;;;14.20;60.10;;;;;;6307241;28;20020;-76
2024/03/15 05:02:55;;;;;;;9.15;2.30;;;14.20;60.10;;;;;;6307506;28;20032;-77
2024/03/15 05:05:56;;;;;;;4.57;2.35;;;14.20;60.20;;;;;;6307707;28;20019;-76
2024/03/15 05:08:58;;;;;;;5.20;2.42;;;14.20;60.30;;;;;;6289870;28;20040;-76
2024/03/15 05:12:01;;;;;;;5.55;2.60;;;14.10;60.40;;;;;;6289780;28;20047;-76
2024/03/15 05:15:03;;;;;;;7.57;2.40;;;14.10;60.50;;;;;;6309098;28;20020;-77
2024/03/15 05:18:04;;;;;;;8.77;2.65;;;14.10;60.60;;;;;;6308402;28;20059;-77
2024/03/15 05:21:06;;;;;;;6.80;2.35;;;14.10;60.60;;;;;;6307902;28;20055;-77
2024/03/15 05:24:07;;;;;;;6.25;2.33;;;14.10;60.80;;;;;;6308142;28;20184;-77
2024/03/15 05:27:09;;;;;;;17.45;2.75;;;14.10;60.80;;;;;;6305847;28;20428;-75
2024/03/15 05:30:11;;;;;;;7.03;2.35;;;14.00;60.90;;;;;;6290622;28;20031;-76
2024/03/15 05:33:12;;;;;;;7.30;2.70;;;14.00;60.90;;;;;;6290280;28;20028;-77
2024/03/15 05:36:14;;;;;;;16.80;2.63;;;14.00;60.90;;;;;;6306818;28;20613;-77
2024/03/15 05:39:17;;;;;;;4.38;2.08;;;14.00;60.90;;;;;;6289720;28;20526;-77
2024/03/15 05:42:19;;;;;;;14.45;2.45;;;14.00;60.90;;;;;;6307569;28;20135;-77
2024/03/15 05:45:23;;;;;;;4.00;2.53;;;14.00;60.90;;;;;;6289272;28;20429;-77
2024/03/15 05:48:24;;;;;;;7.07;2.60;;;14.00;60.90;;;;;;6306999;28;20036;-77
2024/03/15 05:51:27;;;;;;;5.22;2.17;;;14.00;61.00;;;;;;6305584;28;20027;-77
2024/03/15 05:54:27;;;;;;;5.93;2.42;;;14.00;61.10;;;;;;6306121;28;20024;-75
2024/03/15 05:57:29;;;;;;;7.22;3.60;;;14.00;61.10;;;;;;6308137;28;20440;-76
2024/03/15 06:00:33;;;;;;;15.38;2.55;;;14.00;61.20;;;;;;6306257;28;20020;-77
2024/03/15 06:03:34;;;;;;;2.75;1.88;;;14.00;61.30;;;;;;6289173;28;20122;-75
2024/03/15 06:06:35;;;;;;;11.02;2.75;;;13.90;61.30;;;;;;6307596;28;20024;-77
2024/03/15 06:09:45;;;;;;;12.25;2.72;;;13.90;61.40;;;;;;6305767;28;20089;-77
2024/03/15 06:12:46;;;;;;;8.93;2.25;;;13.80;61.50;;;;;;6306650;28;20054;-76
2024/03/15 06:15:48;;;;;;;8.52;2.90;;;13.80;61.50;;;;;;6307394;28;20085;-76
2024/03/15 06:18:49;;;;;;;6.57;2.35;;;13.80;61.60;;;;;;6288662;28;20137;-77
2024/03/15 06:21:50;;;;;;;11.60;2.35;;;13.70;61.70;;;;;;6308555;28;20020;-76
2024/03/15 06:24:56;;;;;;;9.90;2.72;;;13.70;61.60;;;;;;6302394;28;20107;-76
2024/03/15 06:28:06;;;;;;;4.90;2.55;;;13.80;61.60;;;;;;6291293;28;20029;-76
2024/03/15 06:31:07;;;;;;;5.10;2.03;;;13.80;61.40;;;;;;6305038;28;20042;-78
2024/03/15 06:34:09;;;;;;;5.57;2.45;;;13.80;61.20;;;;;;6306804;28;20036;-76
2024/03/15 06:37:14;;;;;;;8.98;2.85;;;13.90;61.10;;;;;;6291436;28;20107;-76
2024/03/15 06:40:19;;;;;;;12.10;2.58;;;13.90;60.80;;;;;;6311640;28;20036;-77
2024/03/15 06:50:30;;;;;;;11.43;3.35;;;14.00;60.40;;;;;;6235068;28;20048;-76
2024/03/15 06:53:32;;;;;;;14.63;2.95;;;14.10;60.20;;;;;;6242411;28;20025;-77
2024/03/15 06:56:32;;;;;;;19.73;3.17;;;14.10;60.00;;;;;;6258403;28;20088;-77
2024/03/15 06:59:34;;;;;;;6.45;2.75;;;14.20;60.00;;;;;;6240309;28;20237;-77
2024/03/15 07:02:41;;;;;;;5.93;2.50;;;14.30;59.90;;;;;;6241147;28;20082;-77
2024/03/15 07:05:43;;;;;;;8.77;3.25;;;14.30;59.80;;;;;;6240270;28;20059;-78
2024/03/15 07:08:50;;;;;;;6.15;2.75;;;14.30;59.70;;;;;;6241120;28;20041;-77
2024/03/15 07:11:54;;;;;;;6.60;2.60;;;14.40;59.60;;;;;;6209494;28;20149;-77
2024/03/15 07:14:55;;;;;;;6.60;2.58;;;14.40;59.60;;;;;;6208283;28;20025;-77
2024/03/15 07:17:56;;;;;;;5.13;2.30;;;14.50;59.70;;;;;;6240625;28;20127;-77
2024/03/15 07:20:58;;;;;;;14.13;3.08;;;14.50;59.70;;;;;;6256582;28;20029;-76
2024/03/15 07:23:59;;;;;;;9.07;3.35;;;14.50;59.60;;;;;;6222454;28;20025;-76
2024/03/15 07:27:00;;;;;;;14.90;4.00;;;14.50;59.70;;;;;;6288951;28;20055;-76
2024/03/15 07:30:04;;;;;;;10.10;4.03;;;14.50;59.70;;;;;;6308276;28;20077;-76
2024/03/15 07:33:07;;;;;;;13.15;3.58;;;14.50;59.70;;;;;;6308535;28;20042;-77
2024/03/15 07:36:13;;;;;;;5.68;2.35;;;14.60;59.70;;;;;;6308514;28;20117;-77
2024/03/15 07:39:16;;;;;;;10.38;3.25;;;14.60;59.70;;;;;;6310777;28;20022;-77
2024/03/15 07:42:19;;;;;;;9.07;3.35;;;14.60;59.70;;;;;;6288991;28;20024;-77
2024/03/15 07:45:21;;;;;;;11.57;3.67;;;14.60;59.70;;;;;;6310175;28;20113;-78
2024/03/15 07:48:22;;;;;;;10.50;3.70;;;14.60;59.80;;;;;;6307294;28;20052;-78
2024/03/15 07:51:23;;;;;;;8.20;3.85;;;14.70;59.80;;;;;;6310271;28;20022;-77
2024/03/15 07:54:25;;;;;;;22.73;4.22;;;14.80;59.80;;;;;;6308458;28;20054;-77
2024/03/15 07:57:28;;;;;;;8.30;3.55;;;14.80;59.70;;;;;;6309203;28;20039;-77
2024/03/15 08:00:31;;;;;;;11.32;3.90;;;14.80;59.70;;;;;;6292678;28;20082;-78
2024/03/15 08:03:32;;;;;;;12.50;3.55;;;15.00;59.70;;;;;;6309036;28;20030;-77
2024/03/15 08:06:33;;;;;;;9.02;3.38;;;15.10;59.40;;;;;;6283535;28;20072;-77
2024/03/15 08:09:34;;;;;;;18.27;4.13;;;15.20;59.30;;;;;;6309523;28;20543;-78
2024/03/15 08:12:39;;;;;;;10.10;4.05;;;15.30;59.00;;;;;;6308791;28;20026;-77
2024/03/15 08:15:41;;;;;;;6.10;3.20;;;15.40;58.80;;;;;;6308100;28;20152;-77
2024/03/15 08:18:42;;;;;;;9.65;3.70;;;15.50;58.70;;;;;;6308293;28;20031;-78
2024/03/15 08:21:43;;;;;;;8.23;4.07;;;15.70;58.60;;;;;;6312351;28;20024;-78
2024/03/15 08:24:45;;;;;;;8.32;4.40;;;15.80;58.20;;;;;;6308463;28;20140;-78
2024/03/15 08:27:46;;;;;;;17.50;3.92;;;16.00;58.00;;;;;;6285210;28;20582;-76
2024/03/15 08:30:48;;;;;;;11.50;3.42;;;16.10;57.70;;;;;;6310119;28;20020;-79
2024/03/15 08:33:49;;;;;;;8.18;3.20;;;16.20;57.40;;;;;;6309616;28;20028;-77
2024/03/15 08:36:50;;;;;;;6.30;3.00;;;16.20;57.20;;;;;;6309327;28;20113;-80
2024/03/15 08:39:55;;;;;;;8.73;2.63;;;16.30;57.00;;;;;;6306972;28;20123;-78
2024/03/15 08:42:56;;;;;;;8.32;3.13;;;16.30;56.80;;;;;;6310494;28;20028;-78
2024/03/15 08:45:57;;;;;;;20.73;3.22;;;16.40;56.60;;;;;;6307778;28;20027;-78
2024/03/15 08:48:59;;;;;;;8.30;2.65;;;16.60;56.60;;;;;;6291627;28;20071;-78
2024/03/15 08:52:00;;;;;;;11.05;3.17;;;16.80;56.30;;;;;;6310322;28;20020;-79
2024/03/15 08:55:01;;;;;;;5.65;2.67;;;17.00;55.60;;;;;;6282657;28;20055;-79
2024/03/15 08:58:03;;;;;;;11.23;2.42;;;17.10;55.30;;;;;;6307508;28;20365;-78
2024/03/15 09:01:04;;;;;;;8.85;3.08;;;17.20;55.10;;;;;;6293745;28;20031;-78
2024/03/15 09:04:05;;;;;;;15.05;2.72;;;17.30;54.80;;;;;;6307903;28;20499;-79
2024/03/15 09:07:06;;;;;;;7.85;2.95;;;17.40;54.50;;;;;;6307500;28;20093;-78
2024/03/15 09:10:13;;;;;;;6.57;2.58;;;17.60;54.30;;;;;;6308938;28;20101;-79
2024/03/15 09:13:16;;;;;;;6.75;2.40;;;17.80;53.80;;;;;;6307549;28;20087;-77
2024/03/15 09:16:20;;;;;;;4.22;2.33;;;17.90;53.60;;;;;;6308675;28;20024;-78
2024/03/15 09:19:22;;;;;;;12.65;2.60;;;18.00;53.50;;;;;;6306806;28;20416;-78
2024/03/15 09:22:24;;;;;;;7.40;2.75;;;18.10;53.30;;;;;;6307870;28;20043;-79
2024/03/15 09:25:29;;;;;;;7.68;2.10;;;18.20;53.00;;;;;;6309575;28;20039;-78
2024/03/15 09:28:37;;;;;;;6.70;2.53;;;18.20;52.80;;;;;;6308099;28;20028;-79
2024/03/15 09:31:40;;;;;;;7.40;2.30;;;18.20;52.70;;;;;;6307080;28;20020;-76
2024/03/15 09:34:48;;;;;;;6.35;2.40;;;18.30;52.40;;;;;;6282220;28;20302;-78
2024/03/15 09:38:05;;;;;;;4.55;2.03;;;18.30;52.30;;;;;;6307513;28;20103;-78
2024/03/15 09:41:07;;;;;;;10.43;2.53;;;18.30;52.00;;;;;;6273341;28;20127;-78
2024/03/15 09:44:13;;;;;;;4.18;2.22;;;18.40;51.70;;;;;;6288933;28;20121;-77
2024/03/15 09:47:14;;;;;;;4.25;1.98;;;18.50;51.50;;;;;;6289789;28;20054;-77
2024/03/15 09:50:21;;;;;;;8.10;2.50;;;18.50;51.30;;;;;;6308135;28;20074;-78
2024/03/15 09:53:22;;;;;;;7.10;2.17;;;18.60;51.00;;;;;;6300404;28;20057;-78
2024/03/15 09:56:25;;;;;;;7.57;2.08;;;18.60;50.70;;;;;;6305150;28;20175;-77
2024/03/15 09:59:35;;;;;;;11.30;2.83;;;18.70;50.60;;;;;;6308813;28;20505;-77
2024/03/15 10:02:35;;;;;;;9.77;2.28;;;18.80;50.60;;;;;;6306438;28;20031;-79
2024/03/15 10:05:40;;;;;;;12.60;2.53;;;18.90;50.20;;;;;;6306902;28;20111;-77
2024/03/15 10:08:41;;;;;;;9.10;2.40;;;18.90;49.90;;;;;;6289362;28;20035;-77
2024/03/15 10:11:43;;;;;;;5.15;1.98;;;18.90;49.50;;;;;;6317750;28;20429;-77
2024/03/15 10:14:44;;;;;;;8.63;2.55;;;19.00;49.30;;;;;;6318835;28;20100;-78
2024/03/15 10:17:47;;;;;;;9.60;2.40;;;19.10;48.80;;;;;;6305675;28;20036;-77
2024/03/15 10:20:53;;;;;;;3.47;1.95;;;19.10;48.60;;;;;;6299325;28;20055;-77
2024/03/15 10:23:54;;;;;;;6.47;2.17;;;19.10;48.50;;;;;;6307630;28;20012;-78
2024/03/15 10:26:56;;;;;;;4.82;2.00;;;19.30;48.30;;;;;;6306976;28;20035;-77
2024/03/15 10:29:57;;;;;;;10.25;2.38;;;19.40;48.10;;;;;;6302261;28;20156;-77
2024/03/15 10:32:58;;;;;;;11.15;2.60;;;19.50;48.10;;;;;;6296390;28;20314;-78
2024/03/15 10:36:03;;;;;;;5.00;1.75;;;19.90;48.20;;;;;;6310763;28;20020;-78
2024/03/15 10:39:04;;;;;;;14.57;2.15;;;19.90;47.70;;;;;;6307614;28;20020;-76
2024/03/15 10:42:12;;;;;;;3.15;1.95;;;20.30;47.00;;;;;;6296054;28;20090;-76
2024/03/15 10:45:15;;;;;;;13.77;2.20;;;20.60;46.10;;;;;;6274830;28;20427;-77
2024/03/15 10:48:19;;;;;;;6.03;1.65;;;21.00;45.30;;;;;;6304911;28;20104;-79
2024/03/15 10:51:25;;;;;;;4.85;2.30;;;21.10;45.10;;;;;;6305573;28;20024;-78
2024/03/15 10:54:28;;;;;;;10.40;1.95;;;21.30;44.80;;;;;;6289373;28;20562;-77
2024/03/15 10:57:30;;;;;;;3.42;1.90;;;21.60;44.30;;;;;;6307468;28;20813;-77
2024/03/15 11:00:32;;;;;;;11.48;1.90;;;22.00;43.70;;;;;;6305602;28;20527;-77
2024/03/15 11:03:34;;;;;;;6.15;2.20;;;22.20;41.80;;;;;;6305327;28;20416;-76
2024/03/15 11:06:44;;;;;;;11.25;1.70;;;22.10;40.90;;;;;;6306968;28;20012;-78
2024/03/15 11:14:14;;;;;;;5.03;1.80;;;22.10;41.60;;;;;;6306968;28;20023;-77
2024/03/15 11:17:19;;;;;;;6.20;1.98;;;22.30;41.00;;;;;;6298972;28;20490;-77
2024/03/15 11:20:19;;;;;;;9.80;2.45;;;22.40;40.60;;;;;;6286359;28;20099;-76
2024/03/15 11:23:26;;;;;;;5.90;1.88;;;22.50;40.40;;;;;;6306383;28;20107;-77
2024/03/15 11:26:28;;;;;;;6.05;2.00;;;22.70;40.20;;;;;;6304129;28;20147;-76
2024/03/15 11:29:34;;;;;;;4.85;1.35;;;22.80;39.70;;;;;;6309631;28;20270;-76
2024/03/15 11:32:35;;;;;;;4.22;1.42;;;23.00;39.30;;;;;;6309016;28;20456;-77
2024/03/15 11:35:38;;;;;;;3.40;1.98;;;23.30;39.00;;;;;;6310628;28;20073;-77
2024/03/15 11:38:46;;;;;;;4.97;1.38;;;23.40;38.50;;;;;;6308852;28;20059;-78
2024/03/15 11:41:47;;;;;;;3.65;1.33;;;23.40;37.50;;;;;;6293001;28;20427;-77
2024/03/15 11:44:47;;;;;;;7.45;1.60;;;23.40;37.70;;;;;;6305295;28;20058;-79
2024/03/15 11:47:51;;;;;;;5.30;1.23;;;23.30;37.40;;;;;;6308628;28;20084;-76
2024/03/15 11:50:53;;;;;;;2.67;1.42;;;23.30;37.40;;;;;;6311638;28;20032;-77
2024/03/15 11:53:54;;;;;;;5.57;1.50;;;23.20;37.30;;;;;;6310763;28;20447;-77
2024/03/15 11:56:58;;;;;;;2.95;1.55;;;23.20;37.30;;;;;;6308501;28;20031;-77
2024/03/15 12:00:11;;;;;;;2.70;1.70;;;23.30;37.30;;;;;;6308454;28;20030;-77
2024/03/15 12:03:13;;;;;;;6.10;2.10;;;23.50;37.20;;;;;;6308697;28;20028;-76
2024/03/15 12:06:15;;;;;;;4.68;1.60;;;23.90;36.70;;;;;;6308093;28;20102;-77
2024/03/15 12:09:16;;;;;;;4.45;1.55;;;23.90;36.50;;;;;;6307621;28;20032;-78
2024/03/15 12:12:22;;;;;;;5.53;1.52;;;23.90;36.50;;;;;;6308018;28;20108;-78
2024/03/15 12:15:28;;;;;;;5.75;2.10;;;23.70;36.60;;;;;;6307739;28;20460;-77
2024/03/15 12:18:29;;;;;;;4.93;1.80;;;23.40;36.90;;;;;;6290790;28;20459;-77
2024/03/15 12:21:30;;;;;;;4.22;1.63;;;23.10;37.40;;;;;;6307738;28;20035;-78
2024/03/15 12:24:32;;;;;;;7.00;2.20;;;22.70;37.90;;;;;;6297585;28;20727;-77
2024/03/15 12:27:35;;;;;;;2.38;1.42;;;22.50;38.40;;;;;;6302895;28;20483;-76
2024/03/15 12:30:36;;;;;;;7.55;1.50;;;22.30;38.90;;;;;;6309340;28;20035;-78
2024/03/15 12:33:38;;;;;;;7.40;1.70;;;22.20;39.10;;;;;;6309039;28;20410;-77
2024/03/15 12:36:39;;;;;;;8.82;1.85;;;22.10;39.30;;;;;;6294656;28;20036;-77
2024/03/15 12:39:40;;;;;;;5.95;1.83;;;22.10;39.60;;;;;;6305414;28;20024;-77
2024/03/15 12:42:41;;;;;;;9.27;2.03;;;22.10;40.30;;;;;;6291262;28;20028;-77
2024/03/15 12:45:43;;;;;;;5.22;2.20;;;22.10;39.80;;;;;;6308500;28;20070;-78
2024/03/15 12:48:44;;;;;;;4.00;1.80;;;22.10;39.80;;;;;;6290665;28;20035;-78
2024/03/15 12:51:45;;;;;;;7.10;1.95;;;22.20;39.90;;;;;;6307539;28;20441;-78
2024/03/15 12:54:46;;;;;;;4.40;1.75;;;22.30;39.70;;;;;;6290911;28;20023;-78
2024/03/15 12:57:48;;;;;;;4.28;2.05;;;22.40;39.70;;;;;;6274395;28;20096;-77
2024/03/15 13:00:49;;;;;;;7.95;1.83;;;22.40;39.70;;;;;;6282647;28;20142;-78
2024/03/15 13:03:50;;;;;;;6.72;2.10;;;22.50;39.60;;;;;;6292641;28;20115;-77
2024/03/15 13:06:51;;;;;;;5.65;1.95;;;22.60;39.40;;;;;;6308794;28;20070;-77
2024/03/15 13:14:16;;;;;;;7.50;1.92;;;22.80;39.00;;;;;;6308789;28;20028;-77
2024/03/15 13:17:17;;;;;;;9.20;1.85;;;23.10;38.30;;;;;;6306493;28;20064;-75
2024/03/15 13:20:21;;;;;;;13.30;2.67;;;23.30;38.00;;;;;;6307078;28;20078;-78
2024/03/15 13:23:22;;;;;;;8.48;2.28;;;23.40;37.90;;;;;;6307131;28;20031;-76
2024/03/15 13:26:30;;;;;;;8.40;1.88;;;23.50;37.80;;;;;;6290538;28;20206;-78
2024/03/15 13:29:34;;;;;;;;;;;23.60;38.00;;;;;;6307227;28;20039;-75
2024/03/15 13:32:38;;;;;;;6.00;2.38;;;23.60;38.10;;;;;;6306639;28;19983;-77
2024/03/15 13:35:41;;;;;;;6.75;2.15;;;23.60;38.10;;;;;;6289773;28;20017;-78
2024/03/15 13:38:47;;;;;;;9.25;2.88;;;23.60;37.90;;;;;;6305818;28;20020;-79
2024/03/15 13:41:49;;;;;;;4.65;1.80;;;23.40;37.90;;;;;;6289218;28;20067;-77
2024/03/15 13:44:50;;;;;;;5.25;2.13;;;23.30;38.20;;;;;;6306313;28;20024;-77
2024/03/15 13:48:38;;;;;;;3.00;1.73;;;23.30;38.60;;;;;;6304818;28;20036;-77
2024/03/15 13:51:39;;;;;;;8.38;1.85;;;23.30;38.20;;;;;;6307522;28;20181;-76
2024/03/15 13:54:40;;;;;;;7.88;2.38;;;23.20;37.90;;;;;;6306108;28;20414;-78
2024/03/15 13:57:42;;;;;;;10.18;3.10;;;23.20;38.00;;;;;;6308046;28;20016;-77
2024/03/15 14:00:49;;;;;;;7.88;2.50;;;23.10;38.00;;;;;;6307765;28;20500;-77
2024/03/15 14:03:50;;;;;;;12.40;2.10;;;23.10;38.20;;;;;;6305730;28;20119;-76
2024/03/15 14:06:51;;;;;;;8.02;1.88;;;23.00;38.40;;;;;;6305751;28;20115;-78
2024/03/15 14:09:53;;;;;;;3.85;1.88;;;23.00;38.60;;;;;;6288705;28;20040;-77
2024/03/15 14:12:53;;;;;;;6.10;1.50;;;22.90;38.60;;;;;;6306897;28;20111;-77
2024/03/15 14:15:54;;;;;;;4.38;1.50;;;22.80;38.60;;;;;;6305389;28;20539;-76
2024/03/15 14:18:55;;;;;;;3.70;1.73;;;22.70;38.60;;;;;;6292730;28;20019;-78
2024/03/15 14:21:57;;;;;;;12.40;1.80;;;22.60;38.70;;;;;;6307944;28;20072;-77
2024/03/15 14:24:58;;;;;;;6.32;2.10;;;22.60;38.70;;;;;;6305581;28;20047;-76
2024/03/15 14:28:06;;;;;;;2.75;1.80;;;22.50;39.00;;;;;;6306465;28;20490;-79
2024/03/15 14:31:10;;;;;;;3.03;1.58;;;22.40;39.10;;;;;;6293430;28;20029;-77
2024/03/15 14:34:11;;;;;;;4.63;1.67;;;22.40;39.20;;;;;;6322302;28;20068;-77
2024/03/15 14:37:13;;;;;;;3.00;1.67;;;22.40;39.00;;;;;;6306271;28;20016;-77
2024/03/15 14:40:29;;;;;;;6.47;1.63;;;22.30;39.20;;;;;;6307558;28;20052;-78
2024/03/15 14:43:29;;;;;;;3.17;1.55;;;22.30;39.30;;;;;;6289312;28;20024;-76
2024/03/15 14:46:30;;;;;;;6.03;1.70;;;22.30;39.40;;;;;;6288154;28;20380;-78
2024/03/15 14:49:32;;;;;;;2.17;1.60;;;22.30;39.50;;;;;;6303822;28;20111;-77
2024/03/15 14:52:34;;;;;;;3.28;2.17;;;22.30;39.10;;;;;;6288230;28;20027;-77
2024/03/15 14:55:40;;;;;;;4.82;1.90;;;22.30;39.20;;;;;;6288628;28;20456;-77
2024/03/15 14:58:42;;;;;;;4.13;1.90;;;22.30;39.40;;;;;;6309665;28;20107;-76
2024/03/15 15:01:45;;;;;;;7.00;1.45;;;22.30;39.30;;;;;;6310613;28;20376;-77
2024/03/15 15:04:47;;;;;;;3.13;1.75;;;22.40;39.30;;;;;;6294114;28;20023;-75
2024/03/15 15:07:47;;;;;;;4.60;1.77;;;22.50;39.30;;;;;;6310790;28;20024;-78
2024/03/15 15:10:51;;;;;;;8.18;2.42;;;22.60;39.20;;;;;;6309893;28;20543;-76
2024/03/15 15:13:52;;;;;;;6.95;1.52;;;22.60;39.00;;;;;;6294021;28;20455;-76
2024/03/15 15:16:54;;;;;;;5.65;1.65;;;22.70;39.00;;;;;;6310344;28;20028;-78
2024/03/15 15:19:55;;;;;;;5.55;1.63;;;22.80;38.90;;;;;;6309680;28;20020;-76
2024/03/15 15:22:59;;;;;;;6.35;1.25;;;22.80;38.60;;;;;;6311155;28;20511;-77
2024/03/15 15:26:00;;;;;;;4.35;1.70;;;22.80;38.60;;;;;;6314767;28;20016;-75
2024/03/15 15:29:03;;;;;;;3.85;1.55;;;22.90;38.50;;;;;;6295963;28;20644;-77
2024/03/15 15:32:05;;;;;;;3.20;1.38;;;22.90;38.40;;;;;;6292233;28;20038;-76
2024/03/15 15:35:09;;;;;;;6.95;1.63;;;23.00;38.40;;;;;;6292638;28;20028;-77
2024/03/15 15:38:11;;;;;;;2.83;1.35;;;23.10;38.30;;;;;;6309610;28;20035;-77
2024/03/15 15:41:12;;;;;;;6.32;1.75;;;23.20;38.20;;;;;;6309277;28;20056;-76
2024/03/15 15:44:13;;;;;;;4.43;1.50;;;23.10;38.20;;;;;;6311103;28;20022;-76
2024/03/15 15:47:14;;;;;;;1.80;1.40;;;23.00;38.90;;;;;;6295496;28;20012;-77
2024/03/15 15:50:18;;;;;;;4.55;1.73;;;22.90;38.40;;;;;;6309784;28;20028;-76
2024/03/15 15:53:19;;;;;;;5.50;1.80;;;22.90;38.60;;;;;;6310797;28;20063;-78
2024/03/15 15:56:23;;;;;;;5.95;2.10;;;22.80;38.70;;;;;;6308931;28;20024;-77
2024/03/15 15:59:24;;;;;;;5.18;1.70;;;22.90;38.80;;;;;;6309283;28;20047;-77
2024/03/15 16:02:28;;;;;;;4.13;2.28;;;22.90;38.90;;;;;;6292308;28;20024;-77
2024/03/15 16:05:28;;;;;;;9.57;2.00;;;22.90;39.00;;;;;;6308289;28;20046;-75
2024/03/15 16:08:30;;;;;;;6.18;1.88;;;22.80;39.20;;;;;;6291433;28;20045;-78